Weather at Brussels Airport

Public forecast

Using degrees Celsius for public forecast. Weather courtesy of forecast.io.

Current aviation weather report (METAR) for Brussels Airport

Retrieved 2021/07/28 23:50 UTC (10 minutes ago):

EBBR 282350Z 23010KT 200V260 9999 FEW025 17/11 Q1011 NOSIG

Aviation forecast (TAF) for Brussels Airport

Retrieved 2021-07-29 00:27 UTC (0 seconds ago):

TAF TAF EBBR 282310Z 2900/3006 23012KT 9999 FEW025 PROB40 TEMPO 2908/2916 24015G25KT BECMG 3001/3003 17006KT